createdAt,value
2019-02-22T00:02:01.796Z,44.33
2019-02-22T00:04:54.787Z,51.30
2019-02-22T00:07:44.108Z,48.53
2019-02-22T00:10:33.943Z,47.27
2019-02-22T00:13:23.485Z,41.50
2019-02-22T00:16:16.234Z,45.70
2019-02-22T00:19:05.533Z,30.47
2019-02-22T00:21:57.314Z,36.40
2019-02-22T00:24:46.755Z,51.73
2019-02-22T00:27:36.332Z,49.90
2019-02-22T00:30:25.783Z,49.07
2019-02-22T00:33:15.278Z,40.07
2019-02-22T00:36:04.689Z,40.27
2019-02-22T00:38:53.977Z,35.53
2019-02-22T00:41:44.023Z,37.63
2019-02-22T00:44:33.671Z,36.00
2019-02-22T00:47:26.575Z,41.63
2019-02-22T00:50:16.120Z,34.07
2019-02-22T00:53:05.817Z,32.13
2019-02-22T00:55:55.686Z,38.47
2019-02-22T00:58:45.247Z,38.10
2019-02-22T01:01:34.365Z,35.17
2019-02-22T01:04:24.545Z,45.07
2019-02-22T01:07:14.751Z,36.70
2019-02-22T01:10:04.757Z,42.90
2019-02-22T01:12:54.373Z,44.30
2019-02-22T01:15:43.152Z,38.37
2019-02-22T01:18:32.432Z,33.63
2019-02-22T01:21:22.528Z,28.60
2019-02-22T01:24:12.186Z,32.00
2019-02-22T01:27:01.811Z,38.07
2019-02-22T01:29:51.404Z,29.83
2019-02-22T01:32:40.687Z,37.63
2019-02-22T01:35:30.365Z,36.37
2019-02-22T01:38:20.336Z,32.10
2019-02-22T01:41:09.857Z,40.80
2019-02-22T01:43:59.632Z,30.00
2019-02-22T01:46:49.647Z,32.10
2019-02-22T01:49:38.914Z,45.43
2019-02-22T01:52:28.558Z,43.77
2019-02-22T01:55:17.519Z,34.50
2019-02-22T01:58:06.586Z,33.43
2019-02-22T02:00:55.991Z,31.57
2019-02-22T02:03:45.905Z,38.10
2019-02-22T02:06:35.432Z,31.53
2019-02-22T02:09:24.910Z,32.57
2019-02-22T02:12:14.539Z,27.43
2019-02-22T02:15:04.587Z,25.67
2019-02-22T02:17:53.900Z,32.83
2019-02-22T02:20:43.701Z,36.67
2019-02-22T02:23:33.060Z,30.37
2019-02-22T02:26:22.317Z,30.73
2019-02-22T02:29:12.189Z,34.17
2019-02-22T02:32:01.740Z,43.63
2019-02-22T02:34:51.053Z,44.07
2019-02-22T02:37:40.036Z,44.17
2019-02-22T02:40:30.055Z,28.87
2019-02-22T02:43:19.079Z,27.80
2019-02-22T02:46:08.051Z,32.83
2019-02-22T02:48:57.194Z,31.63
2019-02-22T02:51:46.753Z,29.27
2019-02-22T02:54:36.761Z,37.13
2019-02-22T02:57:26.054Z,35.93
2019-02-22T03:00:15.774Z,40.50
2019-02-22T03:03:08.717Z,33.97
2019-02-22T03:06:29.464Z,32.67
2019-02-22T03:09:19.203Z,31.93
2019-02-22T03:12:08.868Z,35.37
2019-02-22T03:14:57.302Z,32.27
2019-02-22T03:17:46.584Z,32.83
2019-02-22T03:20:35.801Z,37.33
2019-02-22T03:23:24.851Z,46.97
2019-02-22T03:26:14.299Z,51.37
2019-02-22T03:29:03.743Z,52.90
2019-02-22T03:31:52.986Z,67.93
2019-02-22T03:34:42.262Z,56.30
2019-02-22T03:37:31.530Z,49.90
2019-02-22T03:40:20.593Z,51.53
2019-02-22T03:43:10.999Z,84.20
2019-02-22T03:46:00.482Z,35.27
2019-02-22T03:48:49.705Z,39.87
2019-02-22T03:51:39.107Z,52.50
2019-02-22T03:54:27.990Z,36.90
2019-02-22T03:57:18.910Z,44.03
2019-02-22T04:00:09.130Z,54.33
2019-02-22T04:02:58.306Z,46.77
2019-02-22T04:05:47.696Z,34.93
2019-02-22T04:08:36.684Z,44.67
2019-02-22T04:11:25.926Z,46.57
2019-02-22T04:14:14.919Z,43.57
2019-02-22T04:17:04.151Z,47.20
2019-02-22T04:19:53.831Z,44.37
2019-02-22T04:22:44.376Z,47.47
2019-02-22T04:25:33.452Z,85.17
2019-02-22T04:28:22.749Z,54.73
2019-02-22T04:31:12.328Z,95.17
2019-02-22T04:34:01.932Z,141.47
2019-02-22T04:36:51.031Z,138.90
2019-02-22T04:39:40.606Z,160.07
2019-02-22T04:42:29.483Z,125.70
2019-02-22T04:45:19.881Z,97.73
2019-02-22T04:48:09.239Z,71.07
2019-02-22T04:50:58.573Z,55.20
2019-02-22T04:53:47.873Z,58.27
2019-02-22T04:56:37.198Z,38.77
2019-02-22T04:59:27.549Z,73.80
2019-02-22T05:02:16.988Z,69.67
2019-02-22T05:05:06.927Z,80.50
2019-02-22T05:07:56.188Z,93.83
2019-02-22T05:10:45.784Z,90.77
2019-02-22T05:13:35.115Z,80.03
2019-02-22T05:16:24.544Z,46.57
2019-02-22T05:19:14.185Z,73.40
2019-02-22T05:22:03.570Z,53.37
2019-02-22T05:24:52.605Z,100.73
2019-02-22T05:27:42.249Z,105.63
2019-02-22T05:30:31.606Z,89.50
2019-02-22T05:33:20.811Z,94.70
2019-02-22T05:36:09.914Z,78.07
2019-02-22T05:38:59.480Z,88.20
2019-02-22T05:41:48.952Z,57.10
2019-02-22T05:44:41.778Z,113.00
2019-02-22T05:47:35.025Z,93.27
2019-02-22T05:50:24.613Z,104.43
2019-02-22T05:53:13.172Z,90.13
2019-02-22T05:56:02.919Z,101.43
2019-02-22T05:58:52.090Z,77.83
2019-02-22T06:01:41.628Z,92.57
2019-02-22T06:04:31.122Z,145.67
2019-02-22T06:07:20.529Z,202.00
2019-02-22T06:10:09.742Z,211.10
2019-02-22T06:12:59.008Z,171.93
2019-02-22T06:15:48.310Z,132.30
2019-02-22T06:18:37.803Z,154.37
2019-02-22T06:21:27.518Z,153.50
2019-02-22T06:24:16.935Z,165.30
2019-02-22T06:27:06.191Z,199.83
2019-02-22T06:29:55.559Z,196.53
2019-02-22T06:32:44.107Z,147.37
2019-02-22T06:35:33.359Z,121.13
2019-02-22T06:38:22.731Z,130.33
2019-02-22T06:41:12.171Z,116.87
2019-02-22T06:44:01.369Z,95.00
2019-02-22T06:46:50.434Z,87.03
2019-02-22T06:49:40.004Z,81.53
2019-02-22T06:52:31.746Z,60.77
2019-02-22T06:55:21.105Z,46.63
2019-02-22T06:58:11.812Z,38.87
2019-02-22T07:01:01.436Z,51.03
2019-02-22T07:03:50.716Z,57.80
2019-02-22T07:06:40.042Z,47.67
2019-02-22T07:09:29.107Z,41.87
2019-02-22T07:12:37.155Z,38.43
2019-02-22T07:15:26.732Z,47.77
2019-02-22T07:18:16.171Z,44.33
2019-02-22T07:21:05.848Z,50.10
2019-02-22T07:23:55.398Z,127.57
2019-02-22T07:26:44.504Z,117.37
2019-02-22T07:29:33.572Z,141.10
2019-02-22T07:32:23.215Z,130.00
2019-02-22T07:35:14.269Z,86.17
2019-02-22T07:38:03.026Z,86.27
2019-02-22T07:40:52.644Z,118.27
2019-02-22T07:43:42.223Z,88.37
2019-02-22T07:46:31.491Z,75.10
2019-02-22T07:49:25.923Z,55.93
2019-02-22T07:52:15.182Z,53.00
2019-02-22T07:55:04.860Z,48.07
2019-02-22T07:57:53.946Z,42.63
2019-02-22T08:00:42.974Z,49.47
2019-02-22T08:03:32.337Z,53.93
2019-02-22T08:06:22.099Z,51.67
2019-02-22T08:08:52.958Z,50.23
2019-02-22T08:11:23.797Z,53.10
2019-02-22T08:13:54.685Z,49.80
2019-02-22T08:16:25.543Z,49.17
2019-02-22T08:19:01.428Z,79.77
2019-02-22T08:21:29.272Z,70.77
2019-02-22T08:24:00.123Z,76.20
2019-02-22T08:26:31.010Z,60.57
2019-02-22T08:29:01.862Z,60.93
2019-02-22T08:31:32.716Z,80.13
2019-02-22T08:34:03.606Z,63.33
2019-02-22T08:36:34.449Z,63.10
2019-02-22T08:39:06.332Z,91.23
2019-02-22T08:41:37.299Z,160.10
2019-02-22T08:44:08.169Z,84.63
2019-02-22T08:46:39.030Z,47.73
2019-02-22T08:49:09.916Z,27.00
2019-02-22T08:51:40.772Z,42.30
2019-02-22T08:54:11.631Z,32.93
2019-02-22T08:56:42.586Z,37.53
2019-02-22T08:59:13.465Z,30.97
2019-02-22T09:01:44.292Z,25.10
2019-02-22T09:04:15.180Z,26.47
2019-02-22T09:06:46.039Z,31.60
2019-02-22T09:09:16.895Z,129.23
2019-02-22T09:11:47.846Z,36.63
2019-02-22T09:14:19.193Z,32.47
2019-02-22T09:16:50.114Z,34.37
2019-02-22T09:19:21.026Z,36.80
2019-02-22T09:21:51.934Z,38.23
2019-02-22T09:24:22.789Z,24.43
2019-02-22T09:26:53.737Z,26.33
2019-02-22T09:29:24.597Z,29.47
2019-02-22T09:31:55.516Z,34.43
2019-02-22T09:34:26.408Z,34.10
2019-02-22T09:36:57.269Z,42.43
2019-02-22T09:39:28.223Z,50.53
2019-02-22T09:41:59.175Z,45.33
2019-02-22T09:44:30.027Z,41.60
2019-02-22T09:47:00.888Z,37.83
2019-02-22T09:49:31.833Z,38.10
2019-02-22T09:52:03.637Z,30.30
2019-02-22T09:54:34.491Z,39.13
2019-02-22T09:57:05.923Z,23.60
2019-02-22T09:59:36.771Z,51.90
2019-02-22T10:02:07.621Z,30.17
2019-02-22T10:04:38.710Z,34.47
2019-02-22T10:07:09.557Z,28.87
2019-02-22T10:09:40.404Z,24.47
2019-02-22T10:12:11.332Z,22.17
2019-02-22T10:14:42.183Z,19.03
2019-02-22T10:17:13.045Z,19.83
2019-02-22T10:19:43.975Z,20.57
2019-02-22T10:22:14.828Z,22.43
2019-02-22T10:24:45.685Z,42.13
2019-02-22T10:27:16.642Z,45.03
2019-02-22T10:29:47.524Z,27.73
2019-02-22T10:32:18.395Z,16.17
2019-02-22T10:34:49.275Z,43.70
2019-02-22T10:37:20.197Z,85.83
2019-02-22T10:39:51.057Z,31.43
2019-02-22T10:42:22.499Z,33.07
2019-02-22T10:44:53.347Z,35.97
2019-02-22T10:47:24.218Z,22.77
2019-02-22T10:49:55.106Z,30.23
2019-02-22T10:52:26.517Z,28.27
2019-02-22T10:54:57.464Z,32.83
2019-02-22T10:57:28.399Z,28.60
2019-02-22T10:59:59.244Z,58.90
2019-02-22T11:02:31.335Z,51.03
2019-02-22T11:05:02.486Z,43.57
2019-02-22T11:07:33.347Z,36.07
2019-02-22T11:10:04.302Z,25.33
2019-02-22T11:12:35.283Z,93.50
2019-02-22T11:15:07.192Z,34.50
2019-02-22T11:17:38.135Z,27.93
2019-02-22T11:20:09.345Z,32.93
2019-02-22T11:22:40.208Z,28.07
2019-02-22T11:25:11.959Z,32.70
2019-02-22T11:27:42.810Z,31.87
2019-02-22T11:30:13.796Z,47.10
2019-02-22T11:32:45.301Z,25.73
2019-02-22T11:35:16.193Z,42.97
2019-02-22T11:37:47.156Z,43.67
2019-02-22T11:40:18.023Z,26.10
2019-02-22T11:42:48.868Z,47.63
2019-02-22T11:45:19.725Z,48.03
2019-02-22T11:47:50.688Z,48.30
2019-02-22T11:50:21.533Z,49.00
2019-02-22T11:52:53.388Z,26.93
2019-02-22T11:55:24.281Z,36.73
2019-02-22T11:57:55.317Z,27.23
2019-02-22T12:00:27.245Z,25.00
2019-02-22T12:02:58.192Z,31.17
2019-02-22T12:05:29.043Z,29.17
2019-02-22T12:07:59.904Z,19.43
2019-02-22T12:10:30.794Z,25.33
2019-02-22T12:13:01.653Z,38.33
2019-02-22T12:15:32.501Z,23.93
2019-02-22T12:18:03.458Z,31.33
2019-02-22T12:20:34.341Z,26.60
2019-02-22T12:23:05.184Z,29.77
2019-02-22T12:25:36.083Z,35.03
2019-02-22T12:28:06.942Z,30.53
2019-02-22T12:30:37.798Z,21.97
2019-02-22T12:33:08.763Z,25.43
2019-02-22T12:35:39.610Z,28.77
2019-02-22T12:38:10.470Z,19.33
2019-02-22T12:40:41.435Z,23.40
2019-02-22T12:43:12.294Z,44.43
2019-02-22T12:45:43.135Z,33.20
